createdAt,value
2024-05-09T00:01:56.064Z,9.55
2024-05-09T00:04:31.606Z,10.52
2024-05-09T00:07:07.120Z,8.95
2024-05-09T00:09:45.214Z,8.77
2024-05-09T00:12:20.776Z,13.02
2024-05-09T00:14:56.352Z,8.13
2024-05-09T00:17:32.028Z,8.98
2024-05-09T00:20:14.415Z,7.50
2024-05-09T00:22:55.749Z,10.02
2024-05-09T00:25:33.790Z,11.38
2024-05-09T00:28:09.508Z,11.02
2024-05-09T00:30:44.873Z,11.70
2024-05-09T00:33:20.861Z,8.80
2024-05-09T00:35:56.824Z,8.90
2024-05-09T00:38:32.298Z,10.18
2024-05-09T00:41:10.516Z,10.63
2024-05-09T00:43:45.942Z,12.02
2024-05-09T00:46:21.572Z,10.98
2024-05-09T00:48:57.248Z,11.25
2024-05-09T00:51:32.813Z,9.88
2024-05-09T00:54:08.586Z,9.88
2024-05-09T00:56:47.045Z,12.85
2024-05-09T00:59:22.881Z,11.02
2024-05-09T01:01:58.414Z,11.23
2024-05-09T01:04:33.900Z,12.20
2024-05-09T01:07:09.577Z,10.80
2024-05-09T01:09:44.933Z,10.75
2024-05-09T01:12:24.745Z,9.38
2024-05-09T01:15:00.218Z,9.40
2024-05-09T01:17:36.035Z,10.40
2024-05-09T01:20:19.861Z,9.77
2024-05-09T01:23:00.339Z,10.35
2024-05-09T01:25:38.821Z,9.40
2024-05-09T01:28:15.123Z,8.77
2024-05-09T01:30:50.532Z,11.95
2024-05-09T01:33:26.181Z,11.13
2024-05-09T01:36:01.853Z,11.73
2024-05-09T01:38:37.425Z,13.43
2024-05-09T01:41:15.572Z,12.35
2024-05-09T01:43:51.105Z,14.75
2024-05-09T01:46:26.548Z,13.70
2024-05-09T01:49:01.994Z,11.68
2024-05-09T01:51:37.380Z,12.55
2024-05-09T01:54:12.742Z,10.55
2024-05-09T01:56:50.761Z,11.52
2024-05-09T01:59:26.213Z,17.27
2024-05-09T02:02:02.183Z,10.77
2024-05-09T02:04:37.855Z,14.07
2024-05-09T02:07:13.246Z,16.42
2024-05-09T02:09:48.600Z,12.20
2024-05-09T02:12:26.691Z,12.63
2024-05-09T02:15:02.116Z,12.57
2024-05-09T02:17:37.806Z,11.95
2024-05-09T02:20:22.477Z,12.48
2024-05-09T02:23:04.265Z,8.43
2024-05-09T02:25:40.482Z,7.63
2024-05-09T02:28:18.495Z,9.07
2024-05-09T02:30:53.866Z,8.80
2024-05-09T02:33:29.339Z,12.00
2024-05-09T02:36:05.866Z,8.80
2024-05-09T02:38:39.134Z,10.98
2024-05-09T02:41:14.599Z,9.43
2024-05-09T02:43:50.002Z,11.23
2024-05-09T02:46:25.406Z,11.70
2024-05-09T02:48:58.274Z,12.70
2024-05-09T02:51:33.691Z,15.55
2024-05-09T02:54:07.789Z,16.05
2024-05-09T02:56:43.124Z,14.75
2024-05-09T02:59:18.710Z,15.02
2024-05-09T03:01:54.251Z,20.05
2024-05-09T03:04:27.125Z,18.55
2024-05-09T03:07:02.480Z,15.63
2024-05-09T03:09:35.233Z,15.82
2024-05-09T03:12:10.927Z,15.80
2024-05-09T03:14:49.722Z,16.27
2024-05-09T03:17:26.092Z,18.77
2024-05-09T03:19:59.171Z,17.20
2024-05-09T03:22:34.555Z,18.88
2024-05-09T03:25:07.711Z,16.77
2024-05-09T03:27:43.074Z,18.20
2024-05-09T03:30:29.312Z,19.05
2024-05-09T03:33:14.047Z,21.27
2024-05-09T03:35:48.861Z,21.33
2024-05-09T03:38:24.815Z,20.58
2024-05-09T03:41:00.493Z,17.40
2024-05-09T03:43:35.926Z,17.02
2024-05-09T03:46:13.895Z,19.25
2024-05-09T03:48:46.692Z,20.95
2024-05-09T03:51:22.771Z,23.23
2024-05-09T03:53:55.541Z,18.58
2024-05-09T03:56:31.052Z,18.98
2024-05-09T03:59:04.013Z,21.90
2024-05-09T04:01:42.339Z,20.67
2024-05-09T04:04:15.280Z,21.85
2024-05-09T04:06:51.324Z,24.95
2024-05-09T04:09:24.102Z,23.13
2024-05-09T04:11:59.585Z,20.63
2024-05-09T04:14:32.557Z,21.27
2024-05-09T04:17:10.848Z,21.42
2024-05-09T04:19:43.646Z,18.38
2024-05-09T04:22:19.161Z,16.67
2024-05-09T04:24:52.953Z,16.60
2024-05-09T04:27:28.313Z,16.63
2024-05-09T04:30:01.048Z,14.27
2024-05-09T04:32:39.638Z,16.60
2024-05-09T04:35:12.798Z,17.58
2024-05-09T04:37:48.212Z,19.17
2024-05-09T04:40:28.523Z,13.57
2024-05-09T04:43:09.491Z,17.00
2024-05-09T04:45:42.217Z,14.68
2024-05-09T04:48:20.515Z,15.20
2024-05-09T04:50:53.308Z,15.98
2024-05-09T04:53:28.764Z,12.20
2024-05-09T04:56:02.116Z,14.10
2024-05-09T04:58:37.568Z,14.68
2024-05-09T05:01:10.401Z,14.52
2024-05-09T05:03:48.681Z,15.93
2024-05-09T05:06:21.549Z,16.23
2024-05-09T05:08:56.917Z,13.50
2024-05-09T05:11:29.863Z,11.32
2024-05-09T05:14:05.388Z,10.90
2024-05-09T05:16:41.397Z,12.90
2024-05-09T05:19:17.730Z,11.20
2024-05-09T05:21:53.199Z,11.68
2024-05-09T05:24:26.000Z,12.95
2024-05-09T05:27:01.872Z,13.52
2024-05-09T05:29:34.741Z,15.57
2024-05-09T05:32:10.545Z,14.25
2024-05-09T05:34:46.821Z,17.00
2024-05-09T05:37:22.167Z,14.63
2024-05-09T05:39:54.956Z,17.15
2024-05-09T05:42:30.367Z,15.00
2024-05-09T05:45:04.566Z,18.33
2024-05-09T05:47:41.262Z,16.40
2024-05-09T05:50:24.707Z,20.00
2024-05-09T05:53:09.604Z,15.27
2024-05-09T05:55:43.018Z,17.77
2024-05-09T05:58:20.285Z,20.55
2024-05-09T06:00:53.783Z,16.80
2024-05-09T06:03:29.546Z,17.90
2024-05-09T06:06:05.503Z,16.17
2024-05-09T06:08:41.076Z,15.48
2024-05-09T06:11:14.070Z,16.13
2024-05-09T06:13:49.579Z,15.90
2024-05-09T06:16:22.384Z,16.13
2024-05-09T06:18:57.890Z,15.13
2024-05-09T06:21:33.449Z,17.10
2024-05-09T06:24:10.059Z,20.05
2024-05-09T06:26:43.125Z,17.67
2024-05-09T06:29:18.686Z,21.42
2024-05-09T06:31:51.583Z,18.13
2024-05-09T06:34:27.290Z,18.10
2024-05-09T06:37:02.880Z,20.88
2024-05-09T06:39:38.434Z,15.60
2024-05-09T06:42:11.168Z,17.90
2024-05-09T06:44:46.521Z,14.15
2024-05-09T06:47:19.369Z,13.43
2024-05-09T06:49:54.866Z,10.82
2024-05-09T06:52:30.224Z,8.32
2024-05-09T06:55:05.622Z,8.82
2024-05-09T06:57:40.568Z,8.95
2024-05-09T07:00:26.796Z,8.45
2024-05-09T07:03:07.730Z,6.95
2024-05-09T07:05:43.422Z,6.70
2024-05-09T07:08:19.386Z,10.52
2024-05-09T07:10:55.045Z,8.30
2024-05-09T07:13:28.570Z,6.55
2024-05-09T07:16:03.894Z,7.55
2024-05-09T07:18:37.026Z,7.53
2024-05-09T07:21:12.900Z,8.27
2024-05-09T07:23:48.798Z,7.10
2024-05-09T07:26:24.357Z,8.73
2024-05-09T07:28:57.157Z,8.93
2024-05-09T07:31:32.569Z,6.90
2024-05-09T07:34:05.344Z,6.25
2024-05-09T07:36:40.751Z,8.77
2024-05-09T07:39:18.749Z,6.55
2024-05-09T07:41:51.538Z,8.10
2024-05-09T07:44:26.984Z,4.25
2024-05-09T07:53:29.886Z,5.88
2024-05-09T07:55:14.185Z,5.45
2024-05-09T07:57:47.045Z,3.05
2024-05-09T08:00:29.686Z,3.65
2024-05-09T08:03:04.870Z,6.70
2024-05-09T08:05:40.463Z,6.78
2024-05-09T08:08:13.242Z,2.67
2024-05-09T08:10:51.486Z,5.80
2024-05-09T08:13:24.426Z,2.92
2024-05-09T08:15:59.927Z,4.22
2024-05-09T08:18:34.222Z,5.18
2024-05-09T08:21:09.927Z,4.05
2024-05-09T08:23:42.758Z,2.85
2024-05-09T08:26:21.770Z,3.38
2024-05-09T08:28:54.580Z,6.30
2024-05-09T08:31:30.154Z,3.88
2024-05-09T08:34:03.284Z,7.03
2024-05-09T08:36:40.894Z,3.90
2024-05-09T08:39:13.731Z,7.47
2024-05-09T08:41:54.167Z,4.28
2024-05-09T08:44:27.270Z,5.72
2024-05-09T08:47:02.821Z,7.15
2024-05-09T08:49:39.902Z,5.88
2024-05-09T08:52:16.264Z,5.00
2024-05-09T08:54:49.408Z,5.05
2024-05-09T08:57:29.692Z,6.93
2024-05-09T09:00:09.975Z,4.60
2024-05-09T09:02:49.930Z,5.35
2024-05-09T09:05:28.593Z,5.35
2024-05-09T09:08:09.534Z,6.72
2024-05-09T09:10:43.442Z,8.88
2024-05-09T09:13:21.595Z,8.82
2024-05-09T09:15:58.485Z,4.05
2024-05-09T09:18:34.669Z,7.25
2024-05-09T09:21:10.309Z,3.65
2024-05-09T09:23:46.248Z,4.22
2024-05-09T09:26:19.048Z,4.53
2024-05-09T09:29:03.367Z,4.65
2024-05-09T09:31:39.577Z,5.45
2024-05-09T09:34:12.525Z,5.82
2024-05-09T09:36:50.900Z,2.95
2024-05-09T09:39:28.379Z,2.28
2024-05-09T09:42:05.396Z,2.42
2024-05-09T09:44:42.413Z,1.27
2024-05-09T09:47:21.332Z,1.95
2024-05-09T09:49:55.661Z,1.63
2024-05-09T09:52:31.426Z,4.60
2024-05-09T09:55:05.602Z,1.48
2024-05-09T09:57:42.921Z,1.20
2024-05-09T10:00:26.889Z,0.90
2024-05-09T10:03:06.066Z,5.82
2024-05-09T10:05:42.173Z,1.23
2024-05-09T10:08:22.140Z,4.45
2024-05-09T10:10:55.687Z,1.05
2024-05-09T10:13:36.431Z,1.10
2024-05-09T10:16:12.419Z,1.73
2024-05-09T10:18:48.080Z,1.13
2024-05-09T10:21:21.428Z,1.38
2024-05-09T10:24:00.686Z,1.13
2024-05-09T10:26:34.367Z,4.45
2024-05-09T10:29:16.222Z,1.42
2024-05-09T10:31:51.737Z,2.70
2024-05-09T10:34:27.243Z,1.42
2024-05-09T10:37:04.186Z,6.63
2024-05-09T10:39:41.363Z,2.58
2024-05-09T10:42:14.243Z,2.15
2024-05-09T10:44:50.059Z,2.85
2024-05-09T10:47:26.231Z,3.63
2024-05-09T10:50:01.907Z,1.85
2024-05-09T10:52:34.901Z,2.88
2024-05-09T10:55:10.347Z,1.63
2024-05-09T10:57:43.401Z,1.17
2024-05-09T11:00:27.399Z,2.63
2024-05-09T11:03:11.527Z,1.30
2024-05-09T11:05:47.492Z,2.35
2024-05-09T11:08:23.578Z,1.00
2024-05-09T11:10:56.744Z,0.77
2024-05-09T11:13:32.808Z,0.90
2024-05-09T11:16:15.833Z,0.52
2024-05-09T11:19:00.744Z,0.20
2024-05-09T11:21:34.014Z,0.43
2024-05-09T11:24:11.529Z,0.60
2024-05-09T11:26:44.597Z,0.50
2024-05-09T11:29:20.081Z,1.05
2024-05-09T11:31:52.856Z,0.20
2024-05-09T11:34:30.950Z,0.82
2024-05-09T11:37:04.273Z,0.95
2024-05-09T11:39:39.893Z,0.93
2024-05-09T11:42:12.670Z,0.90
2024-05-09T11:44:48.369Z,3.85
2024-05-09T11:47:22.771Z,1.25
2024-05-09T11:50:00.952Z,3.50
2024-05-09T11:52:33.960Z,2.63
2024-05-09T11:55:09.879Z,1.38
2024-05-09T11:57:42.902Z,1.83
2024-05-09T12:00:28.910Z,2.58
2024-05-09T12:03:07.198Z,1.85
2024-05-09T12:05:45.563Z,1.30
2024-05-09T12:08:18.660Z,2.45
2024-05-09T12:10:54.255Z,1.38
2024-05-09T12:13:27.160Z,0.75
2024-05-09T12:16:02.650Z,1.35
2024-05-09T12:18:35.672Z,3.08
2024-05-09T12:21:17.022Z,1.25
2024-05-09T12:23:49.758Z,1.33
2024-05-09T12:26:25.589Z,1.40
2024-05-09T12:28:58.326Z,1.13
2024-05-09T12:31:33.705Z,1.45
2024-05-09T12:34:06.598Z,1.13
2024-05-09T12:36:45.072Z,1.63
2024-05-09T12:39:17.824Z,1.13
2024-05-09T12:41:53.155Z,0.80
2024-05-09T12:44:25.895Z,0.60
2024-05-09T12:47:02.026Z,1.40
2024-05-09T12:49:35.106Z,1.08
2024-05-09T12:52:13.275Z,0.47
2024-05-09T12:54:46.042Z,0.77
2024-05-09T12:57:21.795Z,1.20
2024-05-09T12:59:57.270Z,0.40
2024-05-09T13:02:30.146Z,0.50
2024-05-09T13:05:05.750Z,0.28
2024-05-09T13:07:41.456Z,1.00
2024-05-09T13:10:25.514Z,0.38
2024-05-09T13:13:04.632Z,1.15
2024-05-09T13:15:40.408Z,0.30
2024-05-09T13:18:13.440Z,0.85
2024-05-09T13:20:48.971Z,0.57
2024-05-09T13:23:24.364Z,0.25
2024-05-09T13:25:59.733Z,0.40
2024-05-09T13:28:33.647Z,0.38
2024-05-09T13:31:09.161Z,1.17
2024-05-09T13:33:42.314Z,0.47
2024-05-09T13:36:17.869Z,1.33
2024-05-09T13:38:53.346Z,1.60
2024-05-09T13:41:28.696Z,0.85
2024-05-09T13:44:01.417Z,2.65
2024-05-09T13:46:37.216Z,0.43
2024-05-09T13:49:12.500Z,0.47
2024-05-09T13:51:48.318Z,2.35
2024-05-09T13:54:23.909Z,1.27
2024-05-09T13:57:01.125Z,0.55
2024-05-09T13:59:33.975Z,1.08
2024-05-09T14:02:09.476Z,0.35
2024-05-09T14:04:42.452Z,0.80
2024-05-09T14:07:17.970Z,0.85
2024-05-09T14:09:53.617Z,4.28
2024-05-09T14:12:28.988Z,1.00
2024-05-09T14:15:01.987Z,0.75
2024-05-09T14:17:37.765Z,4.65
2024-05-09T14:20:14.091Z,5.43
2024-05-09T14:22:51.804Z,1.27
2024-05-09T14:25:28.359Z,1.15
2024-05-09T14:28:04.178Z,1.00
2024-05-09T14:30:38.437Z,0.93
2024-05-09T14:33:16.362Z,0.68
2024-05-09T14:35:49.622Z,1.20
2024-05-09T14:38:25.193Z,5.82
2024-05-09T14:41:00.692Z,1.05
2024-05-09T14:43:36.256Z,2.22
2024-05-09T14:46:09.199Z,0.93
2024-05-09T14:48:45.114Z,1.50
2024-05-09T14:51:18.013Z,2.45
2024-05-09T14:53:53.407Z,1.73
2024-05-09T14:56:29.070Z,2.25
2024-05-09T14:59:04.667Z,3.17
2024-05-09T15:01:37.502Z,1.63
2024-05-09T15:04:12.993Z,1.75
2024-05-09T15:06:48.218Z,1.00
2024-05-09T15:09:23.627Z,5.60
2024-05-09T15:11:59.033Z,3.22
2024-05-09T15:14:34.417Z,1.05
2024-05-09T15:17:07.254Z,1.48
2024-05-09T15:19:42.823Z,1.83
2024-05-09T15:22:16.535Z,0.63
2024-05-09T15:24:53.894Z,1.67
2024-05-09T15:27:29.406Z,1.50
2024-05-09T15:30:08.510Z,1.83
2024-05-09T15:32:43.782Z,1.10
2024-05-09T15:35:19.182Z,1.27
2024-05-09T15:37:52.159Z,1.20
2024-05-09T15:40:36.155Z,1.50
2024-05-09T15:43:15.221Z,1.77
2024-05-09T15:45:50.967Z,3.70
2024-05-09T15:48:23.934Z,1.63
2024-05-09T15:50:59.463Z,1.30
2024-05-09T15:53:32.326Z,2.33
2024-05-09T15:56:10.910Z,0.90
2024-05-09T15:58:46.447Z,1.25
2024-05-09T16:01:21.831Z,1.67
2024-05-09T16:03:54.839Z,1.48
2024-05-09T16:06:30.573Z,1.10
2024-05-09T16:09:03.539Z,1.70
2024-05-09T16:11:39.026Z,1.73
2024-05-09T16:14:16.146Z,1.48
2024-05-09T16:16:53.022Z,1.27
2024-05-09T16:19:26.415Z,1.77
2024-05-09T16:22:02.530Z,0.82
2024-05-09T16:24:35.305Z,0.75
2024-05-09T16:27:10.763Z,1.20
2024-05-09T16:29:46.591Z,2.20
2024-05-09T16:32:22.106Z,1.13
2024-05-09T16:34:54.889Z,1.27
2024-05-09T16:37:30.369Z,1.30
2024-05-09T16:40:09.909Z,1.83
2024-05-09T16:42:48.031Z,1.42
2024-05-09T16:45:25.997Z,2.22
2024-05-09T16:48:00.172Z,1.42
2024-05-09T16:50:36.702Z,1.85
2024-05-09T16:53:09.711Z,2.63
2024-05-09T16:55:45.074Z,2.42
2024-05-09T16:58:18.146Z,3.40
2024-05-09T17:00:56.347Z,1.33
2024-05-09T17:03:29.259Z,2.17
2024-05-09T17:06:05.796Z,1.38
2024-05-09T17:08:40.401Z,3.08
2024-05-09T17:11:15.980Z,3.78
2024-05-09T17:13:51.442Z,12.93
2024-05-09T17:16:30.444Z,2.20
2024-05-09T17:19:03.437Z,3.55
2024-05-09T17:21:38.993Z,2.03
2024-05-09T17:24:11.781Z,1.50
2024-05-09T17:26:47.419Z,1.13
2024-05-09T17:29:21.677Z,0.88
2024-05-09T17:31:59.803Z,0.85
2024-05-09T17:34:32.733Z,1.83
2024-05-09T17:37:08.270Z,1.75
2024-05-09T17:39:41.221Z,2.42
2024-05-09T17:42:16.577Z,5.22
2024-05-09T17:44:49.330Z,1.73
2024-05-09T17:47:27.419Z,1.70
2024-05-09T17:50:00.314Z,2.25
2024-05-09T17:52:35.896Z,1.42
2024-05-09T17:55:08.629Z,1.02
2024-05-09T17:57:44.123Z,2.80
2024-05-09T18:00:24.749Z,1.30
2024-05-09T18:03:14.035Z,0.32
2024-05-09T18:05:50.076Z,1.33
2024-05-09T18:08:23.292Z,0.73
2024-05-09T18:10:58.765Z,0.70
2024-05-09T18:13:31.655Z,0.80
2024-05-09T18:16:07.541Z,0.50
2024-05-09T18:18:43.177Z,1.80
2024-05-09T18:21:18.661Z,0.68
2024-05-09T18:23:53.983Z,3.17
2024-05-09T18:26:30.245Z,3.42
2024-05-09T18:29:03.598Z,3.08
2024-05-09T18:31:39.179Z,1.65
2024-05-09T18:34:14.778Z,1.85
2024-05-09T18:36:50.306Z,2.83
2024-05-09T18:39:23.157Z,6.05
2024-05-09T18:42:00.703Z,2.28
2024-05-09T18:44:33.630Z,5.78
2024-05-09T18:47:10.443Z,2.20
2024-05-09T18:49:46.210Z,3.20
2024-05-09T18:52:21.681Z,4.65
2024-05-09T18:54:54.645Z,3.20
2024-05-09T18:57:30.272Z,2.72
2024-05-09T19:00:05.469Z,3.33
2024-05-09T19:02:41.367Z,3.47
2024-05-09T19:05:17.053Z,1.73
2024-05-09T19:07:52.528Z,5.20
2024-05-09T19:10:28.884Z,2.70
2024-05-09T19:13:12.200Z,3.00
2024-05-09T19:15:46.911Z,5.35
2024-05-09T19:18:22.457Z,6.43
2024-05-09T19:20:58.904Z,13.07
2024-05-09T19:23:38.251Z,5.75
2024-05-09T19:26:13.864Z,7.90
2024-05-09T19:28:49.220Z,6.15
2024-05-09T19:31:22.754Z,6.55
2024-05-09T19:33:58.334Z,5.20
2024-05-09T19:36:33.875Z,3.83
2024-05-09T19:39:09.309Z,3.42
2024-05-09T19:41:42.071Z,3.65
2024-05-09T19:44:17.601Z,4.25
2024-05-09T19:46:50.399Z,4.60
2024-05-09T19:49:26.041Z,5.13
2024-05-09T19:52:02.000Z,4.22
2024-05-09T19:54:37.423Z,5.47
2024-05-09T19:57:10.262Z,5.18
2024-05-09T19:59:46.001Z,4.53
2024-05-09T20:02:19.428Z,4.90
2024-05-09T20:04:55.108Z,3.28
2024-05-09T20:07:32.622Z,5.60
2024-05-09T20:10:16.595Z,5.45
2024-05-09T20:12:56.187Z,6.13
2024-05-09T20:15:31.837Z,5.60
2024-05-09T20:18:06.718Z,4.47
2024-05-09T20:20:44.673Z,3.08
2024-05-09T20:23:21.216Z,2.55
2024-05-09T20:25:56.590Z,2.65
2024-05-09T20:28:29.835Z,1.95
2024-05-09T20:31:06.326Z,1.52
2024-05-09T20:33:39.449Z,3.55
2024-05-09T20:36:14.938Z,1.75
2024-05-09T20:38:50.319Z,1.85
2024-05-09T20:41:25.674Z,2.65
2024-05-09T20:44:01.780Z,2.40
2024-05-09T20:46:37.151Z,2.03
2024-05-09T20:49:10.272Z,2.53
2024-05-09T20:51:45.737Z,3.03
2024-05-09T20:54:21.220Z,2.05
2024-05-09T20:56:56.584Z,2.55
2024-05-09T20:59:29.577Z,2.67
2024-05-09T21:02:05.033Z,1.35
2024-05-09T21:04:38.080Z,2.60
2024-05-09T21:07:13.624Z,1.30
2024-05-09T21:09:49.174Z,2.08
2024-05-09T21:12:24.629Z,1.10
2024-05-09T21:15:00.021Z,1.00
2024-05-09T21:17:33.395Z,1.05
2024-05-09T21:20:16.868Z,1.40
2024-05-09T21:22:52.870Z,0.77
2024-05-09T21:25:30.918Z,1.17
2024-05-09T21:28:04.568Z,1.38
2024-05-09T21:30:42.662Z,2.13
2024-05-09T21:33:16.454Z,2.42
2024-05-09T21:35:51.981Z,1.33
2024-05-09T21:38:24.759Z,0.70
2024-05-09T21:41:02.912Z,0.85
2024-05-09T21:43:35.732Z,1.63
2024-05-09T21:46:11.233Z,1.73
2024-05-09T21:48:44.312Z,2.13
2024-05-09T21:51:19.773Z,1.83
2024-05-09T21:53:52.531Z,0.75
2024-05-09T21:56:30.652Z,1.15
2024-05-09T21:59:03.539Z,0.75
2024-05-09T22:01:40.076Z,1.30
2024-05-09T22:04:13.121Z,0.68
2024-05-09T22:06:48.627Z,0.63
2024-05-09T22:09:21.592Z,0.60
2024-05-09T22:11:59.698Z,0.60
2024-05-09T22:14:32.927Z,0.85
2024-05-09T22:17:08.368Z,1.38
2024-05-09T22:19:45.271Z,0.90
2024-05-09T22:22:20.850Z,2.92
2024-05-09T22:24:55.455Z,4.13
2024-05-09T22:27:33.612Z,1.63
2024-05-09T22:30:11.757Z,3.50
2024-05-09T22:32:50.103Z,2.38
2024-05-09T22:35:22.962Z,1.85
2024-05-09T22:37:58.313Z,1.90
2024-05-09T22:40:41.687Z,2.22
2024-05-09T22:43:25.528Z,2.38
2024-05-09T22:45:58.521Z,3.50
2024-05-09T22:48:34.235Z,1.70
2024-05-09T22:51:07.109Z,3.22
2024-05-09T22:53:42.442Z,2.50
2024-05-09T22:56:15.414Z,3.10
2024-05-09T22:58:53.386Z,3.67
2024-05-09T23:01:27.029Z,3.08
2024-05-09T23:04:02.734Z,2.45
2024-05-09T23:06:35.675Z,2.20
2024-05-09T23:09:12.231Z,3.13
2024-05-09T23:11:45.936Z,3.47
2024-05-09T23:14:23.975Z,1.52
2024-05-09T23:16:56.750Z,1.58
2024-05-09T23:19:32.331Z,1.20
2024-05-09T23:22:05.221Z,1.73
2024-05-09T23:24:41.781Z,1.65
2024-05-09T23:27:14.882Z,1.52
2024-05-09T23:29:53.415Z,0.98
2024-05-09T23:32:26.190Z,1.38
2024-05-09T23:35:01.929Z,0.70
2024-05-09T23:37:34.840Z,0.60
2024-05-09T23:40:18.119Z,1.65
2024-05-09T23:42:51.527Z,0.80
2024-05-09T23:45:29.546Z,0.65
2024-05-09T23:48:02.824Z,0.93
2024-05-09T23:50:40.089Z,0.63
2024-05-09T23:53:14.430Z,0.75
2024-05-09T23:55:49.990Z,1.20
2024-05-09T23:58:22.832Z,0.63
